Time;durP1;ratioP1;P1;durP2;ratioP2;P2;SDS_P1;SDS_P2;PMS_P1;PMS_P2;Temp;Humidity;BMP_temperature;BMP_pressure;BME280_temperature;BME280_humidity;BME280_pressure;Samples;Min_cycle;Max_cycle;Signal;HPM_P1;HPM_P2
2022/09/06 15:38:48;;;;;;;24.15;4.63;;;20.20;99.90;;;;;;5108106;27;20926;-83
2022/09/06 15:41:23;;;;;;;26.45;4.45;;;19.10;99.90;;;;;;5094600;28;20032;-89
2022/09/06 15:43:55;;;;;;;29.35;3.67;;;19.40;99.90;;;;;;5116300;28;20102;-84
2022/09/06 15:46:49;;;;;;;20.52;3.47;;;19.60;99.90;;;;;;5127571;27;20020;-86
2022/09/06 15:49:23;;;;;;;31.80;3.83;;;19.70;99.90;;;;;;5127087;27;20034;-84
2022/09/06 15:51:50;;;;;;;19.85;3.22;;;19.60;99.90;;;;;;5127117;27;20386;-88
2022/09/06 15:54:17;;;;;;;28.33;4.03;;;19.70;99.90;;;;;;5126693;28;20027;-94
2022/09/06 15:56:44;;;;;;;20.83;3.23;;;;;;;;;;5127774;27;20031;-88
2022/09/06 15:59:10;;;;;;;17.02;3.03;;;19.60;99.90;;;;;;5127550;28;20265;-91
2022/09/06 16:01:37;;;;;;;29.08;4.68;;;19.50;99.90;;;;;;5127513;27;20022;-87
2022/09/06 16:04:07;;;;;;;22.38;3.63;;;19.50;99.90;;;;;;5126867;27;20030;-86
2022/09/06 16:06:38;;;;;;;21.00;4.00;;;19.60;99.90;;;;;;5127057;27;20062;-88
2022/09/06 16:09:16;;;;;;;18.20;3.20;;;19.60;99.90;;;;;;5127053;27;20440;-91
2022/09/06 16:11:44;;;;;;;;;;;19.50;99.90;;;;;;5127994;27;20027;-91
2022/09/06 16:14:13;;;;;;;26.42;4.57;;;19.70;99.90;;;;;;5127127;27;19903;-91
2022/09/06 16:16:39;;;;;;;;;;;19.80;99.90;;;;;;5126221;27;20164;-90
2022/09/06 16:19:05;;;;;;;29.80;4.38;;;;;;;;;;5127282;27;19937;-93
2022/09/06 16:21:33;;;;;;;25.40;3.72;;;19.40;99.90;;;;;;5126998;28;20020;-92
2022/09/06 16:24:01;;;;;;;22.80;4.13;;;19.30;99.90;;;;;;5127284;27;20502;-89
2022/09/06 16:26:31;;;;;;;17.23;4.65;;;19.30;99.90;;;;;;5126826;27;20024;-89
2022/09/06 16:28:57;;;;;;;20.48;3.55;;;19.30;99.90;;;;;;5126997;27;20016;-91
2022/09/06 16:31:24;;;;;;;23.73;3.78;;;;;;;;;;5126503;27;20024;-86
2022/09/06 16:33:50;;;;;;;20.50;3.42;;;19.60;99.90;;;;;;5127072;28;20015;-85
2022/09/06 16:36:17;;;;;;;28.65;4.30;;;22.90;99.90;;;;;;5126019;27;20102;-89
2022/09/06 16:38:43;;;;;;;18.88;2.67;;;19.10;99.90;;;;;;5126157;27;20042;-85
2022/09/06 16:41:13;;;;;;;16.85;3.38;;;19.80;99.90;;;;;;5125983;27;20020;-86
2022/09/06 16:43:39;;;;;;;20.75;3.05;;;;;;;;;;5125888;27;20441;-85
2022/09/06 16:46:05;;;;;;;15.07;2.55;;;20.20;99.90;;;;;;5126224;28;20077;-90
2022/09/06 16:48:31;;;;;;;22.65;3.08;;;20.40;99.90;;;;;;5119686;28;20060;-90
2022/09/06 16:51:06;;;;;;;19.75;3.28;;;20.40;99.90;;;;;;5112899;28;20031;-89
2022/09/06 16:53:32;;;;;;;19.02;3.08;;;20.40;99.90;;;;;;5112315;28;20095;-89
2022/09/06 16:56:02;;;;;;;29.27;3.17;;;20.40;99.90;;;;;;5110780;28;20114;-88
2022/09/06 16:58:28;;;;;;;16.48;2.90;;;20.50;99.90;;;;;;5112136;28;20063;-90
2022/09/06 17:00:54;;;;;;;15.13;3.22;;;20.60;99.90;;;;;;5111629;28;20028;-86
2022/09/06 17:03:20;;;;;;;14.13;2.60;;;22.60;99.90;;;;;;5113138;28;20024;-86
2022/09/06 17:05:50;;;;;;;22.08;3.00;;;20.90;99.90;;;;;;5110793;28;20118;-86
2022/09/06 17:08:16;;;;;;;17.20;3.00;;;;;;;;;;5112191;28;20019;-86
2022/09/06 17:10:43;;;;;;;21.20;3.72;;;;;;;;;;5111863;27;20023;-86
2022/09/06 17:13:09;;;;;;;19.50;3.42;;;21.10;99.90;;;;;;5111761;28;20076;-89
2022/09/06 17:18:21;;;;;;;27.48;4.35;;;21.20;99.90;;;;;;5092381;28;20514;-86
2022/09/06 17:20:59;;;;;;;23.38;3.60;;;21.30;99.90;;;;;;5090121;28;20140;-86
2022/09/06 17:23:26;;;;;;;22.45;3.65;;;21.30;99.90;;;;;;5091329;28;20388;-87
2022/09/06 17:25:52;;;;;;;29.17;4.13;;;21.30;99.90;;;;;;5092367;28;20065;-86
2022/09/06 17:28:18;;;;;;;35.03;4.45;;;;;;;;;;5091244;28;20016;-87
2022/09/06 17:30:44;;;;;;;30.58;4.43;;;21.20;99.90;;;;;;5090926;28;20107;-86
2022/09/06 17:33:09;;;;;;;31.17;4.65;;;21.10;99.90;;;;;;5091026;28;20089;-85
2022/09/06 17:35:35;;;;;;;37.78;4.63;;;21.10;99.90;;;;;;5092577;28;20024;-91
2022/09/06 17:38:01;;;;;;;25.52;4.30;;;21.00;99.90;;;;;;5094385;28;20046;-88
2022/09/06 17:40:26;;;;;;;29.55;5.05;;;21.10;99.90;;;;;;5095177;28;20020;-84
2022/09/06 17:42:52;;;;;;;40.83;5.07;;;21.00;99.90;;;;;;5098126;28;20024;-85
2022/09/06 17:45:20;;;;;;;29.70;4.80;;;;;;;;;;5091692;28;20066;-91
2022/09/06 17:47:46;;;;;;;36.60;5.50;;;20.80;99.90;;;;;;5091209;28;20567;-89
2022/09/06 17:50:11;;;;;;;48.42;5.43;;;20.80;99.90;;;;;;5090934;28;20416;-90
2022/09/06 17:52:37;;;;;;;29.25;4.45;;;20.70;99.90;;;;;;5089625;28;20020;-89
2022/09/06 17:55:03;;;;;;;29.35;4.80;;;20.70;99.90;;;;;;5090786;28;20024;-86
2022/09/06 17:57:29;;;;;;;38.13;5.03;;;20.70;99.90;;;;;;5090988;28;20024;-92
2022/09/06 17:59:55;;;;;;;48.08;5.72;;;20.60;99.90;;;;;;5090751;28;20038;-84
2022/09/06 18:02:21;;;;;;;45.17;4.90;;;23.90;99.90;;;;;;5090526;28;20035;-90
2022/09/06 18:04:47;;;;;;;38.45;5.30;;;19.30;99.90;;;;;;5090786;28;20262;-86
2022/09/06 18:07:12;;;;;;;38.83;5.63;;;20.50;99.90;;;;;;5090570;28;20024;-84
2022/09/06 18:09:40;;;;;;;29.23;5.05;;;20.40;99.90;;;;;;5090873;28;20036;-88
2022/09/06 18:12:06;;;;;;;48.88;5.93;;;20.30;99.90;;;;;;5087504;28;20020;-89
2022/09/06 18:14:33;;;;;;;37.92;5.95;;;;;;;;;;5090103;28;20028;-90
2022/09/06 18:16:58;;;;;;;45.13;5.97;;;20.30;99.90;;;;;;5093589;28;20036;-85
2022/09/06 18:19:25;;;;;;;39.45;5.78;;;20.20;99.90;;;;;;5092510;28;20036;-90
2022/09/06 18:21:51;;;;;;;37.97;4.57;;;20.10;99.90;;;;;;5091561;28;20544;-85
2022/09/06 18:24:17;;;;;;;46.45;5.45;;;18.30;99.90;;;;;;5090643;28;20028;-86
2022/09/06 18:26:43;;;;;;;55.28;5.70;;;19.90;99.90;;;;;;5091724;28;20048;-90
2022/09/06 18:29:11;;;;;;;49.60;5.82;;;19.80;99.90;;;;;;5090659;28;20020;-84
2022/09/06 18:31:38;;;;;;;40.00;5.47;;;19.60;99.90;;;;;;5091086;28;20069;-86
2022/09/06 18:34:05;;;;;;;42.72;5.72;;;19.70;99.90;;;;;;5091740;28;20114;-92
2022/09/06 18:36:31;;;;;;;36.95;4.82;;;19.50;99.90;;;;;;5088489;28;20046;-84
2022/09/06 18:38:58;;;;;;;43.47;6.40;;;19.50;99.90;;;;;;5090713;28;20489;-93
2022/09/06 18:44:09;;;;;;;47.22;5.50;;;19.30;99.90;;;;;;5089880;28;20039;-88
2022/09/06 18:46:37;;;;;;;40.88;5.22;;;19.30;99.90;;;;;;5090040;28;20024;-85
2022/09/06 18:49:03;;;;;;;40.67;5.75;;;;;;;;;;5089396;28;20012;-88
2022/09/06 18:51:29;;;;;;;48.35;5.95;;;19.20;99.90;;;;;;5090182;28;20032;-88
2022/09/06 18:53:56;;;;;;;48.50;6.75;;;19.10;99.90;;;;;;5088976;28;20020;-88
2022/09/06 18:56:23;;;;;;;48.13;6.43;;;19.20;99.90;;;;;;5089000;28;20176;-88
2022/09/06 18:58:50;;;;;;;40.20;5.93;;;19.10;99.90;;;;;;5089594;28;20039;-86
2022/09/06 19:01:18;;;;;;;39.92;6.15;;;19.10;99.90;;;;;;5089328;28;20032;-85
2022/09/06 19:03:44;;;;;;;42.88;5.65;;;;;;;;;;5089095;28;20431;-84
2022/09/06 19:06:14;;;;;;;38.75;5.57;;;19.10;99.90;;;;;;5088713;28;20033;-87
2022/09/06 19:08:40;;;;;;;44.25;4.97;;;19.00;99.90;;;;;;5087433;28;20032;-85
2022/09/06 19:11:17;;;;;;;58.53;6.70;;;18.90;99.90;;;;;;5086996;28;20452;-87
2022/09/06 19:13:44;;;;;;;38.42;5.38;;;18.90;99.90;;;;;;5089144;28;20060;-90
2022/09/06 19:16:11;;;;;;;40.45;6.22;;;18.80;99.90;;;;;;5088989;28;20020;-85
2022/09/06 19:18:38;;;;;;;47.60;6.28;;;19.20;99.90;;;;;;5089386;28;20043;-89
2022/09/06 19:21:16;;;;;;;46.38;6.10;;;18.90;99.90;;;;;;5089154;28;20067;-89
2022/09/06 19:23:43;;;;;;;60.00;6.63;;;18.90;99.90;;;;;;5089438;28;20031;-86
2022/09/06 19:26:17;;;;;;;54.13;5.47;;;18.80;99.90;;;;;;5088973;28;20027;-89
2022/09/06 19:28:48;;;;;;;50.42;5.35;;;18.80;99.90;;;;;;5088950;28;20020;-89
2022/09/06 19:31:14;;;;;;;52.90;5.80;;;18.80;99.90;;;;;;5087590;28;20016;-88
2022/09/06 19:33:42;;;;;;;48.92;5.10;;;18.80;99.90;;;;;;5089259;28;20016;-85
2022/09/06 19:36:08;;;;;;;49.50;6.35;;;18.80;99.90;;;;;;5088801;28;20088;-84
2022/09/06 19:38:34;;;;;;;47.13;5.35;;;18.70;99.90;;;;;;5087101;28;20092;-85
2022/09/06 19:41:05;;;;;;;48.03;5.63;;;18.70;99.90;;;;;;5089847;28;20020;-91
2022/09/06 19:43:31;;;;;;;48.72;6.72;;;18.70;99.90;;;;;;5089679;28;20039;-84
2022/09/06 19:46:04;;;;;;;42.97;4.60;;;18.80;99.90;;;;;;5089788;28;20028;-95
2022/09/06 19:48:30;;;;;;;41.60;4.90;;;;;;;;;;5089800;28;20020;-88
2022/09/06 19:51:02;;;;;;;39.17;4.78;;;18.70;99.90;;;;;;5088232;28;20430;-86
2022/09/06 19:53:28;;;;;;;37.55;5.50;;;16.50;99.90;;;;;;5089752;28;20024;-88
2022/09/06 19:55:55;;;;;;;37.75;5.82;;;18.60;99.90;;;;;;5088734;28;20497;-91
2022/09/06 19:58:21;;;;;;;39.75;5.75;;;;;;;;;;5088601;28;20280;-91
2022/09/06 20:00:47;;;;;;;34.30;4.93;;;18.50;99.90;;;;;;5087899;28;20024;-88
2022/09/06 20:03:13;;;;;;;40.70;4.38;;;18.50;99.90;;;;;;5088662;28;20108;-89
2022/09/06 20:05:39;;;;;;;44.83;4.85;;;;;;;;;;5088899;28;20032;-89
2022/09/06 20:08:05;;;;;;;35.40;4.97;;;;;;;;;;5088738;28;20078;-88
2022/09/06 20:10:31;;;;;;;38.00;5.50;;;;;;;;;;5089500;28;20028;-88
2022/09/06 20:12:57;;;;;;;39.28;4.15;;;;;;;;;;5089707;28;20054;-91
2022/09/06 20:15:24;;;;;;;28.70;5.80;;;;;;;;;;5088663;28;20027;-91
2022/09/06 20:17:50;;;;;;;39.13;4.63;;;;;;;;;;5089495;28;20036;-93
2022/09/06 20:20:16;;;;;;;43.55;4.60;;;18.80;99.90;;;;;;5092781;28;20016;-92
2022/09/06 20:22:46;;;;;;;44.97;4.75;;;18.10;99.90;;;;;;5088755;28;20031;-91
2022/09/06 20:25:12;;;;;;;43.90;5.20;;;;;;;;;;5092748;28;20023;-90
2022/09/06 20:27:41;;;;;;;42.88;5.60;;;18.10;99.90;;;;;;5101961;28;20089;-88
2022/09/06 20:30:07;;;;;;;27.13;4.70;;;17.20;99.90;;;;;;5094510;28;20472;-87
2022/09/06 20:32:33;;;;;;;50.78;6.00;;;;;;;;;;5092090;28;20028;-89
2022/09/06 20:34:59;;;;;;;39.70;6.35;;;;;;;;;;5093143;28;20053;-89
2022/09/06 20:37:25;;;;;;;38.60;5.78;;;18.10;99.90;;;;;;5091800;28;20024;-89
2022/09/06 20:39:51;;;;;;;31.05;4.40;;;;;;;;;;5092432;28;20118;-93
2022/09/06 20:42:17;;;;;;;30.73;4.40;;;;;;;;;;5092187;28;20109;-92
2022/09/06 20:44:43;;;;;;;51.08;5.70;;;;;;;;;;5092299;28;20024;-91
2022/09/06 20:47:09;;;;;;;41.08;5.22;;;;;;;;;;5091974;28;20031;-93
2022/09/06 20:49:35;;;;;;;41.20;4.93;;;17.90;99.90;;;;;;5092612;28;20024;-91
2022/09/06 20:52:01;;;;;;;40.10;5.45;;;18.00;99.90;;;;;;5092235;28;20072;-86
2022/09/06 20:54:28;;;;;;;51.85;5.40;;;;;;;;;;5092771;28;20062;-90
2022/09/06 20:56:54;;;;;;;61.03;5.57;;;;;;;;;;5091777;28;20058;-91
2022/09/06 20:59:20;;;;;;;33.78;5.50;;;;;;;;;;5090489;28;20059;-90
2022/09/06 21:01:49;;;;;;;44.83;5.82;;;;;;;;;;5092201;28;20024;-87
2022/09/06 21:04:16;;;;;;;57.28;7.35;;;17.80;99.90;;;;;;5092302;28;20131;-88
2022/09/06 21:06:44;;;;;;;37.33;5.78;;;;;;;;;;5092340;28;20028;-91
2022/09/06 21:09:12;;;;;;;;;;;17.80;99.90;;;;;;5092482;28;20020;-87
2022/09/06 21:11:38;;;;;;;51.90;5.50;;;;;;;;;;5092046;28;19910;-87
2022/09/06 21:14:04;;;;;;;34.65;5.63;;;;;;;;;;5092148;28;20051;-91
2022/09/06 21:16:30;;;;;;;31.23;5.20;;;17.80;99.90;;;;;;5092778;28;20103;-90
2022/09/06 21:18:58;;;;;;;53.75;6.45;;;17.80;99.90;;;;;;5092082;28;20032;-91
2022/09/06 21:21:25;;;;;;;45.15;5.30;;;17.80;99.90;;;;;;5092190;28;20048;-86
2022/09/06 21:23:52;;;;;;;57.57;6.63;;;;;;;;;;5092055;28;20113;-89
2022/09/06 21:26:18;;;;;;;44.08;5.43;;;;;;;;;;5091785;28;20028;-87
2022/09/06 21:28:45;;;;;;;37.10;5.68;;;17.80;99.90;;;;;;5091700;28;20106;-87
2022/09/06 21:31:13;;;;;;;47.57;6.80;;;17.80;99.90;;;;;;5091656;28;20099;-86
2022/09/06 21:33:47;;;;;;;50.00;7.38;;;17.90;99.90;;;;;;5090255;28;20119;-90
2022/09/06 21:36:18;;;;;;;49.10;5.30;;;17.90;99.90;;;;;;5091485;28;20032;-88
2022/09/06 21:38:46;;;;;;;61.75;5.82;;;17.90;99.90;;;;;;5091607;28;20032;-93
2022/09/06 21:41:14;;;;;;;52.95;5.07;;;17.80;99.90;;;;;;5090463;28;20540;-88
2022/09/06 21:43:40;;;;;;;63.42;6.38;;;17.80;99.90;;;;;;5091969;28;20067;-87
2022/09/06 21:46:12;;;;;;;60.75;6.25;;;17.80;99.90;;;;;;5091525;28;20020;-92
2022/09/06 21:48:41;;;;;;;46.13;5.75;;;17.70;99.90;;;;;;5090062;28;20032;-91
2022/09/06 21:51:08;;;;;;;54.22;6.80;;;;;;;;;;5090615;28;20050;-92
2022/09/06 21:53:35;;;;;;;39.90;5.43;;;17.70;99.90;;;;;;5092329;28;20069;-86
2022/09/06 21:56:04;;;;;;;61.60;7.30;;;17.90;99.90;;;;;;5091959;28;20028;-86
2022/09/06 21:58:31;;;;;;;67.30;6.70;;;;;;;;;;5090671;28;20038;-94
2022/09/06 22:00:59;;;;;;;60.40;6.25;;;17.80;99.90;;;;;;5091407;28;20107;-90
2022/09/06 22:03:26;;;;;;;46.65;6.43;;;17.80;99.90;;;;;;5091394;28;20308;-92
2022/09/06 22:05:52;;;;;;;52.95;7.10;;;17.80;99.90;;;;;;5091441;28;20028;-90
2022/09/06 22:08:18;;;;;;;65.30;7.30;;;;;;;;;;5091197;28;20027;-90
2022/09/06 22:10:46;;;;;;;55.63;7.13;;;;;;;;;;5089768;28;20035;-90
2022/09/06 22:13:12;;;;;;;65.75;6.60;;;17.80;99.90;;;;;;5089775;28;20407;-87
2022/09/06 22:15:38;;;;;;;54.22;5.97;;;17.80;99.90;;;;;;5089960;28;20024;-90
2022/09/06 22:18:04;;;;;;;59.35;5.97;;;;;;;;;;5092118;28;20034;-91
2022/09/06 22:20:31;;;;;;;48.92;6.25;;;;;;;;;;5092016;28;20471;-92
2022/09/06 22:22:57;;;;;;;47.28;6.38;;;;;;;;;;5091032;28;20020;-90
2022/09/06 22:25:23;;;;;;;56.08;6.80;;;17.80;99.90;;;;;;5091022;28;20070;-91
2022/09/06 22:27:49;;;;;;;44.13;5.68;;;;;;;;;;5091009;28;20028;-92
2022/09/06 22:30:14;;;;;;;63.85;6.78;;;17.80;99.90;;;;;;5090939;28;20020;-91
2022/09/06 22:32:40;;;;;;;66.90;7.90;;;17.90;99.90;;;;;;5090717;28;20028;-91
2022/09/06 22:35:06;;;;;;;45.92;7.45;;;17.80;99.90;;;;;;5091510;28;20027;-90
2022/09/06 22:37:32;;;;;;;51.10;5.93;;;17.80;99.90;;;;;;5091310;28;20032;-88
2022/09/06 22:39:59;;;;;;;69.32;7.25;;;17.80;99.90;;;;;;5090687;28;20031;-91
2022/09/06 22:42:24;;;;;;;70.53;6.40;;;17.80;99.90;;;;;;5090484;28;20024;-89
2022/09/06 22:44:50;;;;;;;61.78;6.63;;;17.80;99.90;;;;;;5090582;28;20027;-89
2022/09/06 22:47:16;;;;;;;73.28;7.07;;;17.80;99.90;;;;;;5089684;28;20437;-86
2022/09/06 22:49:41;;;;;;;52.55;7.40;;;17.70;99.90;;;;;;5089003;28;20024;-89
2022/09/06 22:52:07;;;;;;;64.72;7.47;;;17.70;99.90;;;;;;5089124;28;20023;-88
2022/09/06 22:54:33;;;;;;;49.63;7.05;;;17.70;99.90;;;;;;5091014;28;20020;-92
2022/09/06 22:56:59;;;;;;;55.70;6.82;;;;;;;;;;5090434;28;20024;-90
2022/09/06 22:59:25;;;;;;;40.40;5.53;;;;;;;;;;5090566;28;20039;-90
2022/09/06 23:01:51;;;;;;;65.80;7.10;;;;;;;;;;5092123;28;20027;-90
2022/09/06 23:04:17;;;;;;;61.13;7.53;;;;;;;;;;5105072;28;20026;-88
2022/09/06 23:06:43;;;;;;;63.72;8.02;;;;;;;;;;5104746;28;20016;-88
2022/09/06 23:09:09;;;;;;;54.53;6.43;;;;;;;;;;5110938;28;20036;-87
2022/09/06 23:11:35;;;;;;;59.15;6.13;;;;;;;;;;5094011;28;20039;-87
2022/09/06 23:14:03;;;;;;;61.00;7.30;;;;;;;;;;5090338;28;20109;-89
2022/09/06 23:16:29;;;;;;;61.13;7.18;;;;;;;;;;5089750;28;20051;-89
2022/09/06 23:18:56;;;;;;;48.67;5.95;;;;;;;;;;5088775;28;20503;-91
2022/09/06 23:21:23;;;;;;;59.50;7.28;;;17.70;99.90;;;;;;5088695;28;20390;-87
2022/09/06 23:23:51;;;;;;;61.63;7.05;;;17.70;99.90;;;;;;5089726;28;20413;-91
2022/09/06 23:26:22;;;;;;;46.13;6.47;;;17.60;99.90;;;;;;5088709;28;20460;-88
2022/09/06 23:28:50;;;;;;;62.22;7.20;;;17.70;99.90;;;;;;5089907;28;20031;-90
2022/09/06 23:31:16;;;;;;;58.50;6.50;;;;;;;;;;5089747;28;20077;-86
2022/09/06 23:33:43;;;;;;;57.75;6.80;;;;;;;;;;5089704;28;20017;-90
2022/09/06 23:36:12;;;;;;;50.03;6.95;;;17.60;99.90;;;;;;5090374;28;20113;-90
2022/09/06 23:38:40;;;;;;;68.93;7.68;;;17.60;99.90;;;;;;5090333;28;20036;-92
2022/09/06 23:41:07;;;;;;;56.13;6.23;;;17.60;99.90;;;;;;5090696;28;20027;-90
2022/09/06 23:43:33;;;;;;;54.23;6.10;;;17.60;99.90;;;;;;5089648;28;20361;-91
2022/09/06 23:45:59;;;;;;;54.13;6.15;;;;;;;;;;5089694;28;20361;-87
2022/09/06 23:48:24;;;;;;;48.58;6.25;;;17.60;99.90;;;;;;5089377;28;20020;-91
2022/09/06 23:50:50;;;;;;;52.67;6.75;;;17.50;99.90;;;;;;5089614;28;20101;-88
2022/09/06 23:53:17;;;;;;;66.85;7.15;;;17.50;99.90;;;;;;5089443;28;20028;-91
2022/09/06 23:55:43;;;;;;;57.42;7.10;;;;;;;;;;5088319;28;20059;-89
2022/09/06 23:58:10;;;;;;;59.45;7.13;;;;;;;;;;5090314;28;20040;-90
